Time;durP1;ratioP1;P1;durP2;ratioP2;P2;SDS_P1;SDS_P2;PMS_P1;PMS_P2;Temp;Humidity;BMP_temperature;BMP_pressure;BME280_temperature;BME280_humidity;BME280_pressure;Samples;Min_cycle;Max_cycle;Signal;HPM_P1;HPM_P2
2022/06/18 00:00:52;;;;;;;;;;;;;;;22.89;56.63;101666.34;5031760;28;20019;-80
2022/06/18 00:03:17;;;;;;;;;;;;;;;22.81;56.78;101665.91;5032283;28;20015;-80
2022/06/18 00:05:43;;;;;;;;;;;;;;;22.77;57.11;101668.28;5032473;28;20318;-82
2022/06/18 00:08:15;;;;;;;;;;;;;;;22.73;57.30;101672.63;5032444;28;19917;-81
2022/06/18 00:10:40;;;;;;;;;;;;;;;22.72;57.16;101670.94;5031067;28;19917;-81
2022/06/18 00:15:59;;;;;;;;;;;;;;;22.72;57.38;101677.28;5030143;28;19928;-81
2022/06/18 00:18:24;;;;;;;;;;;;;;;22.70;57.55;101673.94;5031391;28;19917;-81
2022/06/18 00:20:49;;;;;;;;;;;;;;;22.73;57.65;101667.13;5030596;28;19987;-80
2022/06/18 00:23:15;;;;;;;;;;;;;;;22.69;57.62;101677.75;5031714;28;19923;-80
2022/06/18 00:25:41;;;;;;;;;;;;;;;22.67;57.73;101670.81;5030095;28;19928;-80
2022/06/18 00:28:19;;;;;;;;;;;;;;;22.63;57.85;101669.66;5031725;28;19924;-80
2022/06/18 00:30:45;;;;;;;;;;;;;;;22.58;58.07;101670.38;5031745;28;20298;-81
2022/06/18 00:33:10;;;;;;;;;;;;;;;22.56;58.12;101673.38;5032047;28;20003;-83
2022/06/18 00:35:35;;;;;;;;;;;;;;;22.59;58.02;101672.03;5032837;28;19917;-81
2022/06/18 00:38:03;;;;;;;;;;;;;;;22.58;57.61;101679.44;5031401;28;19957;-81
2022/06/18 00:40:38;;;;;;;;;;;;;;;22.57;57.73;101669.56;5031922;28;19959;-82
2022/06/18 00:43:09;;;;;;;;;;;;;;;22.55;57.77;101665.38;5028454;28;19921;-81
2022/06/18 00:45:34;;;;;;;;;;;;;;;22.54;57.60;101661.81;5030626;28;19940;-81
2022/06/18 00:48:08;;;;;;;;;;;;;;;22.52;57.73;101658.47;5031563;28;20491;-80
2022/06/18 00:50:42;;;;;;;;;;;;;;;22.51;57.81;101659.56;5030103;28;19968;-81
2022/06/18 00:53:12;;;;;;;;;;;;;;;22.53;57.41;101651.91;5031195;28;19991;-81
2022/06/18 00:55:42;;;;;;;;;;;;;;;22.51;57.04;101664.19;5030596;28;19917;-81
2022/06/18 00:58:08;;;;;;;;;;;;;;;22.53;57.03;101673.00;5029813;28;19928;-81
2022/06/18 01:00:37;;;;;;;;;;;;;;;22.56;56.80;101667.91;5030991;28;20343;-83
2022/06/18 01:03:03;;;;;;;;;;;;;;;22.58;56.56;101665.72;5031180;28;19964;-80
2022/06/18 01:05:33;;;;;;;;;;;;;;;22.61;56.06;101669.06;5031972;28;19925;-80
2022/06/18 01:08:02;;;;;;;;;;;;;;;22.68;55.37;101661.53;5032222;28;19928;-82
2022/06/18 01:10:32;;;;;;;;;;;;;;;22.74;54.97;101660.56;5030405;28;20266;-80
2022/06/18 01:12:57;;;;;;;;;;;;;;;22.78;55.00;101659.00;5032626;28;20016;-80
2022/06/18 01:15:23;;;;;;;;;;;;;;;22.81;55.07;101664.00;5037916;28;19917;-81
2022/06/18 01:17:48;;;;;;;;;;;;;;;22.82;55.05;101662.91;5037174;28;20499;-81
2022/06/18 01:20:14;;;;;;;;;;;;;;;22.79;55.18;101655.16;5036870;28;19921;-81
2022/06/18 01:22:54;;;;;;;;;;;;;;;22.78;55.52;101659.00;5037615;28;19921;-81
2022/06/18 01:25:20;;;;;;;;;;;;;;;22.67;55.92;101659.84;5037756;28;19925;-81
2022/06/18 01:27:46;;;;;;;;;;;;;;;22.60;56.26;101656.44;5038188;28;20392;-81
2022/06/18 01:30:14;;;;;;;;;;;;;;;22.47;56.91;101657.53;5036836;28;19928;-82
2022/06/18 01:32:39;;;;;;;;;;;;;;;22.40;57.35;101652.16;5037057;28;19967;-81
2022/06/18 01:35:05;;;;;;;;;;;;;;;22.33;57.56;101652.31;5037407;28;19921;-81
2022/06/18 01:37:30;;;;;;;;;;;;;;;22.23;58.35;101651.25;5036059;28;19931;-80
2022/06/18 01:39:56;;;;;;;;;;;;;;;22.18;58.64;101646.44;5037603;28;20016;-78
2022/06/18 01:42:28;;;;;;;;;;;;;;;22.10;59.09;101646.81;5037554;28;20028;-79
2022/06/18 01:44:55;;;;;;;;;;;;;;;22.01;59.69;101648.22;5037386;28;19923;-79
2022/06/18 01:47:50;;;;;;;;;;;;;;;21.97;59.98;101642.41;5037157;28;19922;-79
2022/06/18 01:50:18;;;;;;;;;;;;;;;21.88;60.48;101638.34;5000419;28;19918;-79
2022/06/18 01:52:44;;;;;;;;;;;;;;;21.82;60.53;101644.78;5037219;28;20384;-80
2022/06/18 01:55:30;;;;;;;;;;;;;;;21.73;61.13;101646.22;5037187;28;20016;-80
2022/06/18 01:57:56;;;;;;;;;;;;;;;21.66;61.77;101641.66;5036567;28;20012;-80
2022/06/18 02:00:22;;;;;;;;;;;;;;;21.59;62.04;101646.44;5035974;28;19921;-80
2022/06/18 02:02:48;;;;;;;;;;;;;;;21.50;62.33;101647.84;5037177;28;19921;-80
2022/06/18 02:05:13;;;;;;;;;;;;;;;21.44;62.63;101652.34;5035719;28;19994;-79
2022/06/18 02:07:39;;;;;;;;;;;;;;;21.40;62.82;101653.06;5037115;28;19925;-80
2022/06/18 02:10:10;;;;;;;;;;;;;;;21.33;63.24;101646.81;5037115;28;19929;-79
2022/06/18 02:12:37;;;;;;;;;;;;;;;21.27;63.36;101652.19;5035978;28;19921;-79
2022/06/18 02:15:05;;;;;;;;;;;;;;;21.15;63.83;101651.28;5036993;28;20387;-79
2022/06/18 02:17:30;;;;;;;;;;;;;;;21.12;64.23;101657.22;5035753;28;20304;-80
2022/06/18 02:20:04;;;;;;;;;;;;;;;21.10;64.33;101659.38;5037670;28;20356;-80
2022/06/18 02:22:31;;;;;;;;;;;;;;;20.96;64.73;101663.38;5035457;28;20023;-79
2022/06/18 02:24:56;;;;;;;;;;;;;;;20.81;65.04;101667.31;5015323;28;19922;-79
2022/06/18 02:27:21;;;;;;;;;;;;;;;20.77;65.81;101666.13;5034128;28;19928;-79
2022/06/18 02:29:47;;;;;;;;;;;;;;;20.72;65.82;101665.13;5033598;28;19932;-79
2022/06/18 02:34:47;;;;;;;;;;;;;;;20.56;66.63;101661.09;4632111;22;19932;-35
2022/06/18 02:37:15;;;;;;;;;;;;;;;20.45;66.73;101667.31;5075960;28;19921;-39
2022/06/18 02:39:50;;;;;;;;;;;;;;;20.37;67.35;101671.19;5074635;28;19909;-36
2022/06/18 02:42:16;;;;;;;;;;;;;;;20.33;67.58;101670.81;5071239;28;19921;-34
2022/06/18 02:44:42;;;;;;;;;;;;;;;20.24;67.96;101666.69;5074596;28;19921;-33
2022/06/18 02:47:08;;;;;;;;;;;;;;;20.20;68.40;101664.66;5075924;28;19919;-32
2022/06/18 02:49:38;;;;;;;;;;;;;;;20.06;68.75;101663.91;5075323;28;19968;-36
2022/06/18 02:52:04;;;;;;;;;;;;;;;20.07;69.44;101668.34;5074510;28;19927;-35
2022/06/18 02:54:29;;;;;;;;;;;;;;;20.08;69.17;101665.38;5074840;28;19960;-32
2022/06/18 02:56:54;;;;;;;;;;;;;;;20.08;69.22;101661.81;5074583;28;19992;-33
2022/06/18 02:59:19;;;;;;;;;;;;;;;20.06;69.58;101656.56;5074666;28;19921;-34
2022/06/18 03:01:45;;;;;;;;;;;;;;;20.07;69.49;101657.41;5074516;28;19921;-35
2022/06/18 03:04:10;;;;;;;;;;;;;;;20.05;69.50;101663.09;5074971;28;19936;-38
2022/06/18 03:06:36;;;;;;;;;;;;;;;20.01;69.86;101664.63;5074556;28;19960;-37
2022/06/18 03:09:01;;;;;;;;;;;;;;;19.98;69.95;101666.94;5074031;28;19921;-34
2022/06/18 03:14:13;;;;;;;;;;;;;;;20.01;69.94;101666.50;5074563;28;19955;-35
2022/06/18 03:16:38;;;;;;;;;;;;;;;20.01;69.79;101667.34;5075113;28;19935;-35
2022/06/18 03:19:03;;;;;;;;;;;;;;;19.95;70.20;101665.50;5074746;28;19920;-38
2022/06/18 03:21:36;;;;;;;;;;;;;;;19.83;70.35;101665.41;5073599;28;19921;-35
2022/06/18 03:24:02;;;;;;;;;;;;;;;19.74;70.64;101672.19;5074883;28;20016;-34
2022/06/18 03:26:27;;;;;;;;;;;;;;;19.69;71.64;101674.75;5073743;28;19928;-33
2022/06/18 03:28:53;;;;;;;;;;;;;;;19.68;71.31;101664.91;5072872;28;19928;-33
2022/06/18 03:31:18;;;;;;;;;;;;;;;19.65;71.69;101666.16;5071549;28;19993;-38
2022/06/18 03:33:43;;;;;;;;;;;;;;;19.63;71.31;101664.69;5070694;28;19920;-35
2022/06/18 03:36:09;;;;;;;;;;;;;;;19.56;71.72;101663.91;5047452;28;19933;-38
2022/06/18 03:38:34;;;;;;;;;;;;;;;19.58;71.98;101665.34;5050231;28;19982;-37
2022/06/18 03:41:00;;;;;;;;;;;;;;;19.56;72.51;101666.63;5055827;28;19921;-35
2022/06/18 03:43:26;;;;;;;;;;;;;;;19.59;72.75;101671.66;5052407;28;19925;-35
2022/06/18 03:45:52;;;;;;;;;;;;;;;19.61;72.54;101664.91;5054265;28;20127;-36
2022/06/18 03:48:36;;;;;;;;;;;;;;;19.65;72.68;101674.34;5069646;28;19939;-35
2022/06/18 03:51:01;;;;;;;;;;;;;;;19.66;72.04;101665.09;5069174;28;19921;-40
2022/06/18 03:53:27;;;;;;;;;;;;;;;19.63;72.07;101667.44;5072106;28;19939;-34
2022/06/18 03:55:52;;;;;;;;;;;;;;;19.61;72.50;101677.72;5069335;28;19951;-38
2022/06/18 03:58:17;;;;;;;;;;;;;;;19.61;72.87;101670.38;5068337;28;19920;-38
2022/06/18 04:00:43;;;;;;;;;;;;;;;19.62;72.70;101671.22;5067116;28;19909;-39
2022/06/18 04:03:08;;;;;;;;;;;;;;;19.65;72.74;101673.50;5052060;28;19917;-39
2022/06/18 04:05:34;;;;;;;;;;;;;;;19.65;72.41;101674.34;5050003;28;19971;-35
2022/06/18 04:08:00;;;;;;;;;;;;;;;19.68;72.11;101673.09;5050997;28;19940;-36
2022/06/18 04:10:25;;;;;;;;;;;;;;;19.67;72.30;101674.16;5059890;28;19936;-34
2022/06/18 04:12:50;;;;;;;;;;;;;;;19.72;72.42;101679.75;5055871;28;19920;-35
2022/06/18 04:15:18;;;;;;;;;;;;;;;19.77;72.15;101682.66;5055141;28;19986;-37
2022/06/18 04:17:43;;;;;;;;;;;;;;;19.83;71.79;101678.22;5066196;28;19949;-35
2022/06/18 04:20:19;;;;;;;;;;;;;;;19.90;71.62;101679.00;5052451;28;20174;-39
2022/06/18 04:22:44;;;;;;;;;;;;;;;19.95;71.31;101685.47;5061526;28;19936;-36
2022/06/18 04:25:09;;;;;;;;;;;;;;;19.97;70.98;101682.50;5070837;28;19912;-36
2022/06/18 04:27:35;;;;;;;;;;;;;;;20.03;70.20;101675.31;5067998;28;19925;-40
2022/06/18 04:30:00;;;;;;;;;;;;;;;20.02;69.45;101674.47;5071736;28;19924;-34
2022/06/18 04:32:25;;;;;;;;;;;;;;;20.04;69.49;101674.28;5055595;28;19955;-38
2022/06/18 04:34:50;;;;;;;;;;;;;;;20.07;69.28;101671.06;5069087;28;19923;-37
2022/06/18 04:37:15;;;;;;;;;;;;;;;20.07;69.70;101668.34;5067673;28;19987;-36
2022/06/18 04:39:42;;;;;;;;;;;;;;;20.13;69.40;101672.91;5066489;28;20285;-40
2022/06/18 04:42:08;;;;;;;;;;;;;;;20.18;69.39;101667.59;5066417;28;19921;-36
2022/06/18 04:44:33;;;;;;;;;;;;;;;20.26;68.79;101674.66;5068046;28;19924;-38
2022/06/18 04:46:58;;;;;;;;;;;;;;;20.29;69.26;101672.31;5062567;28;19972;-37
2022/06/18 04:49:23;;;;;;;;;;;;;;;20.28;69.03;101667.91;5056723;28;19925;-35
2022/06/18 04:51:49;;;;;;;;;;;;;;;20.35;69.27;101668.69;5056762;28;19931;-38
2022/06/18 04:54:14;;;;;;;;;;;;;;;20.47;69.14;101673.41;5062962;28;19909;-36
2022/06/18 04:56:39;;;;;;;;;;;;;;;20.54;68.18;101676.94;5054701;28;19932;-37
2022/06/18 04:59:05;;;;;;;;;;;;;;;20.63;68.08;101674.72;5051703;28;19948;-36
2022/06/18 05:01:30;;;;;;;;;;;;;;;20.71;67.69;101677.97;5049905;28;19984;-35
2022/06/18 05:03:55;;;;;;;;;;;;;;;20.79;67.20;101663.97;5056032;28;20004;-38
2022/06/18 05:06:21;;;;;;;;;;;;;;;20.82;66.37;101671.72;5051932;28;19925;-38
2022/06/18 05:08:46;;;;;;;;;;;;;;;20.88;66.72;101674.59;5051904;28;20004;-39
2022/06/18 05:11:11;;;;;;;;;;;;;;;20.94;66.83;101671.78;5051433;28;19921;-37
2022/06/18 05:13:36;;;;;;;;;;;;;;;21.03;66.36;101672.28;5054400;28;19947;-35
2022/06/18 05:16:01;;;;;;;;;;;;;;;21.10;66.14;101678.53;5048978;28;19913;-37
2022/06/18 05:18:27;;;;;;;;;;;;;;;21.23;65.62;101674.78;5051971;28;19956;-36
2022/06/18 05:20:53;;;;;;;;;;;;;;;21.37;64.79;101676.22;5049001;28;19929;-38
2022/06/18 05:23:18;;;;;;;;;;;;;;;21.43;64.32;101674.47;5050371;28;19967;-36
2022/06/18 05:25:44;;;;;;;;;;;;;;;21.48;64.37;101671.88;5050134;28;19921;-35
2022/06/18 05:28:10;;;;;;;;;;;;;;;21.50;64.25;101675.22;5050021;28;19943;-38
2022/06/18 05:30:35;;;;;;;;;;;;;;;21.42;63.95;101681.03;5052126;28;19948;-39
2022/06/18 05:33:00;;;;;;;;;;;;;;;21.43;65.11;101675.34;5050805;28;19929;-34
2022/06/18 05:35:26;;;;;;;;;;;;;;;21.65;63.83;101674.78;5053949;28;19909;-37
2022/06/18 05:37:51;;;;;;;;;;;;;;;21.65;63.59;101672.88;5051436;28;19960;-38
2022/06/18 05:40:17;;;;;;;;;;;;;;;21.75;63.50;101671.44;5055962;28;20002;-36
2022/06/18 05:42:42;;;;;;;;;;;;;;;21.78;63.09;101671.00;5057091;28;19972;-35
2022/06/18 05:45:08;;;;;;;;;;;;;;;21.82;62.87;101666.69;5048398;28;19929;-35
2022/06/18 05:47:33;;;;;;;;;;;;;;;21.89;62.74;101670.16;5049889;28;19952;-39
2022/06/18 05:49:59;;;;;;;;;;;;;;;21.92;62.69;101678.75;5050201;28;19928;-37
2022/06/18 05:52:25;;;;;;;;;;;;;;;22.01;63.04;101673.75;5048852;28;19949;-35
2022/06/18 05:54:51;;;;;;;;;;;;;;;22.09;62.92;101667.91;5050282;28;19921;-36
2022/06/18 05:57:16;;;;;;;;;;;;;;;22.18;63.05;101670.28;5050161;28;19904;-37
2022/06/18 05:59:42;;;;;;;;;;;;;;;22.18;62.23;101676.59;5051052;28;20200;-36
2022/06/18 06:02:08;;;;;;;;;;;;;;;22.24;62.25;101685.81;5057342;28;19924;-34
2022/06/18 06:04:33;;;;;;;;;;;;;;;22.39;61.31;101674.38;5054516;28;19980;-33
2022/06/18 06:06:58;;;;;;;;;;;;;;;22.43;62.03;101694.72;5054877;28;19940;-36
2022/06/18 06:12:11;;;;;;;;;;;;;;;22.60;60.29;101700.34;5071246;28;20274;-34
2022/06/18 06:14:37;;;;;;;;;;;;;;;22.62;60.41;101698.16;5053905;28;19928;-35
2022/06/18 06:17:03;;;;;;;;;;;;;;;22.68;60.82;101699.94;5063533;28;19924;-37
2022/06/18 06:19:28;;;;;;;;;;;;;;;22.75;60.17;101700.66;5059330;28;19909;-33
2022/06/18 06:21:53;;;;;;;;;;;;;;;22.91;59.97;101701.81;5054688;28;19948;-38
2022/06/18 06:24:18;;;;;;;;;;;;;;;23.07;59.54;101700.22;5059988;28;19921;-35
2022/06/18 06:26:43;;;;;;;;;;;;;;;23.35;58.21;101708.44;5063984;28;20000;-36
2022/06/18 06:29:09;;;;;;;;;;;;;;;23.54;57.92;101706.34;5064278;28;20002;-35
2022/06/18 06:31:34;;;;;;;;;;;;;;;23.72;57.33;101713.53;5057449;28;19928;-34
2022/06/18 06:33:59;;;;;;;;;;;;;;;23.98;56.40;101717.53;5055026;28;19921;-33
2022/06/18 06:36:25;;;;;;;;;;;;;;;24.10;56.58;101720.22;5056827;28;19932;-34
2022/06/18 06:38:50;;;;;;;;;;;;;;;24.26;55.83;101724.84;5074417;28;19917;-37
2022/06/18 06:41:20;;;;;;;;;;;;;;;24.42;55.18;101730.59;5042087;28;19974;-38
2022/06/18 06:43:45;;;;;;;;;;;;;;;24.57;53.96;101728.09;5054664;28;19983;-37
2022/06/18 06:46:11;;;;;;;;;;;;;;;24.75;53.78;101727.78;5055307;28;19917;-38
2022/06/18 06:48:36;;;;;;;;;;;;;;;24.81;52.67;101731.44;5054744;28;19963;-36
2022/06/18 06:51:02;;;;;;;;;;;;;;;24.79;52.97;101727.25;5055401;28;19980;-34
2022/06/18 06:53:27;;;;;;;;;;;;;;;24.74;53.27;101728.84;5054774;28;19917;-37
2022/06/18 06:58:36;;;;;;;;;;;;;;;24.82;53.44;101724.81;5056322;28;19947;-36
2022/06/18 07:01:02;;;;;;;;;;;;;;;24.93;53.31;101732.09;5054795;28;19945;-35
2022/06/18 07:03:29;;;;;;;;;;;;;;;25.08;53.14;101731.47;5055207;28;19916;-34
2022/06/18 07:05:54;;;;;;;;;;;;;;;25.56;52.37;101735.31;5055798;28;19917;-36
2022/06/18 07:08:20;;;;;;;;;;;;;;;25.98;51.09;101737.38;5055930;28;19928;-34
2022/06/18 07:10:48;;;;;;;;;;;;;;;26.46;50.22;101730.00;5055770;28;19905;-35
2022/06/18 07:13:13;;;;;;;;;;;;;;;27.08;48.28;101741.34;5056012;28;19929;-33
2022/06/18 07:15:38;;;;;;;;;;;;;;;27.66;46.93;101742.06;5055540;28;19981;-34
2022/06/18 07:18:04;;;;;;;;;;;;;;;28.43;44.45;101736.47;5055704;28;20012;-33
2022/06/18 07:20:29;;;;;;;;;;;;;;;28.43;43.98;101733.72;5055608;28;19917;-35
2022/06/18 07:22:56;;;;;;;;;;;;;;;28.13;44.74;101746.50;5055525;28;19928;-36
2022/06/18 07:25:21;;;;;;;;;;;;;;;28.31;44.94;101735.97;5054444;28;19952;-35
2022/06/18 07:27:46;;;;;;;;;;;;;;;28.84;43.68;101739.16;5053111;28;19932;-37
2022/06/18 07:30:12;;;;;;;;;;;;;;;29.02;43.63;101741.31;5054303;28;19925;-35
2022/06/18 07:32:37;;;;;;;;;;;;;;;29.27;42.65;101742.28;5054383;28;19939;-38
2022/06/18 07:35:03;;;;;;;;;;;;;;;29.49;42.29;101733.53;5054522;28;19929;-37
2022/06/18 07:37:29;;;;;;;;;;;;;;;30.06;40.63;101732.00;5054022;28;19996;-37
2022/06/18 07:39:54;;;;;;;;;;;;;;;29.96;40.62;101738.50;5052635;28;19920;-38
2022/06/18 07:42:19;;;;;;;;;;;;;;;30.15;39.76;101740.56;5054599;28;19929;-35
2022/06/18 07:44:45;;;;;;;;;;;;;;;30.06;40.74;101739.50;5054904;28;19905;-36
2022/06/18 07:47:14;;;;;;;;;;;;;;;30.28;40.52;101741.81;5053391;28;20360;-35
2022/06/18 07:49:39;;;;;;;;;;;;;;;30.34;40.22;101738.72;5055013;28;19971;-36
2022/06/18 07:52:05;;;;;;;;;;;;;;;30.57;40.05;101741.78;5054442;28;19901;-35
2022/06/18 07:54:30;;;;;;;;;;;;;;;30.46;39.69;101734.69;5054929;28;19936;-38
2022/06/18 07:56:55;;;;;;;;;;;;;;;30.50;40.89;101727.44;5054653;28;19920;-37
2022/06/18 07:59:20;;;;;;;;;;;;;;;31.03;38.68;101730.13;5053534;28;19944;-38
2022/06/18 08:01:46;;;;;;;;;;;;;;;31.12;37.96;101733.88;5053838;28;19901;-35
2022/06/18 08:04:11;;;;;;;;;;;;;;;31.65;37.40;101730.06;5053260;28;19985;-38
2022/06/18 08:06:36;;;;;;;;;;;;;;;31.96;37.13;101733.19;5053709;28;19905;-36
2022/06/18 08:09:02;;;;;;;;;;;;;;;31.73;38.16;101734.97;5053752;28;19917;-33
2022/06/18 08:11:29;;;;;;;;;;;;;;;31.82;37.39;101735.09;5054533;28;19960;-34
2022/06/18 08:13:58;;;;;;;;;;;;;;;32.04;37.18;101732.47;5054005;28;19919;-37
2022/06/18 08:16:23;;;;;;;;;;;;;;;31.94;38.08;101735.47;5054271;28;20121;-33
2022/06/18 08:18:48;;;;;;;;;;;;;;;31.95;37.59;101737.13;5053226;28;19921;-35
2022/06/18 08:21:14;;;;;;;;;;;;;;;31.61;37.96;101732.63;5058401;28;19964;-37
2022/06/18 08:23:39;;;;;;;;;;;;;;;31.59;38.02;101718.19;5054879;28;19921;-34
2022/06/18 08:26:05;;;;;;;;;;;;;;;31.42;38.93;101717.94;5053315;28;19921;-37
2022/06/18 08:28:30;;;;;;;;;;;;;;;31.44;38.21;101724.84;5069220;28;19924;-38
2022/06/18 08:30:56;;;;;;;;;;;;;;;32.42;36.70;101720.38;5073877;28;20054;-36
2022/06/18 08:33:21;;;;;;;;;;;;;;;31.85;37.98;101731.69;5073365;28;19921;-37
2022/06/18 08:35:46;;;;;;;;;;;;;;;31.68;37.14;101716.38;5073653;28;19938;-34
2022/06/18 08:38:11;;;;;;;;;;;;;;;31.78;37.13;101714.53;5072891;28;19921;-35
2022/06/18 08:40:55;;;;;;;;;;;;;;;31.70;37.29;101707.72;5072530;28;19920;-34
2022/06/18 08:43:39;;;;;;;;;;;;;;;31.87;36.40;101713.56;5071495;28;19921;-38
2022/06/18 08:46:11;;;;;;;;;;;;;;;32.11;36.79;101696.72;5073412;28;19905;-38
2022/06/18 08:48:45;;;;;;;;;;;;;;;32.48;35.46;101717.19;5073054;28;19951;-35
2022/06/18 08:51:16;;;;;;;;;;;;;;;32.61;35.54;101714.72;5072170;28;19929;-38
2022/06/18 08:53:51;;;;;;;;;;;;;;;32.76;35.40;101706.06;5059204;28;19967;-36
2022/06/18 08:56:37;;;;;;;;;;;;;;;32.89;34.97;101710.78;5052779;28;19925;-36
2022/06/18 08:59:21;;;;;;;;;;;;;;;33.99;32.71;101715.13;5052709;28;19971;-37
2022/06/18 09:01:50;;;;;;;;;;;;;;;33.62;33.10;101717.19;5053553;28;19917;-37
2022/06/18 09:04:25;;;;;;;;;;;;;;;33.60;33.70;101716.72;5052995;28;19968;-36
2022/06/18 09:06:57;;;;;;;;;;;;;;;33.56;33.06;101712.91;5060959;28;19931;-37
2022/06/18 09:09:35;;;;;;;;;;;;;;;33.74;32.70;101713.84;5073020;28;19905;-39
2022/06/18 09:12:14;;;;;;;;;;;;;;;33.60;33.63;101718.69;5070944;28;19917;-37
2022/06/18 09:14:49;;;;;;;;;;;;;;;33.58;33.57;101707.00;5070350;28;19909;-39
2022/06/18 09:17:20;;;;;;;;;;;;;;;34.17;32.28;101704.91;5071562;28;19917;-37
2022/06/18 09:19:47;;;;;;;;;;;;;;;33.79;33.11;101704.53;5053193;28;19910;-36
2022/06/18 09:22:16;;;;;;;;;;;;;;;33.26;34.36;101708.00;5072048;28;19948;-35
2022/06/18 09:24:42;;;;;;;;;;;;;;;33.34;34.24;101707.28;5070540;28;19921;-38
2022/06/18 09:27:11;;;;;;;;;;;;;;;33.73;34.28;101709.41;5053712;28;19928;-37
2022/06/18 09:29:36;;;;;;;;;;;;;;;33.82;34.05;101710.28;5059002;28;19944;-40
2022/06/18 09:32:02;;;;;;;;;;;;;;;33.60;34.02;101715.91;5067084;28;19926;-39
2022/06/18 09:34:46;;;;;;;;;;;;;;;33.64;34.22;101719.69;5056989;28;20276;-35
2022/06/18 09:37:16;;;;;;;;;;;;;;;33.50;34.18;101713.31;5057589;28;19957;-36
2022/06/18 09:39:42;;;;;;;;;;;;;;;33.88;33.56;101714.59;5056347;28;19921;-38
2022/06/18 09:42:13;;;;;;;;;;;;;;;33.99;33.20;101717.94;5065188;28;19913;-37
2022/06/18 09:44:43;;;;;;;;;;;;;;;33.29;34.11;101719.38;5067550;28;19943;-37
2022/06/18 09:47:13;;;;;;;;;;;;;;;32.92;34.69;101712.94;5056405;28;19975;-39
2022/06/18 09:49:38;;;;;;;;;;;;;;;33.80;33.17;101701.41;5064537;28;19908;-40
2022/06/18 09:52:04;;;;;;;;;;;;;;;33.77;33.44;101701.22;5072399;28;19931;-35
2022/06/18 09:54:34;;;;;;;;;;;;;;;33.73;33.46;101706.63;5069385;28;19924;-38
2022/06/18 09:57:00;;;;;;;;;;;;;;;33.47;34.07;101709.19;5065536;28;19984;-37
2022/06/18 09:59:28;;;;;;;;;;;;;;;33.27;34.79;101704.09;5055898;28;19929;-37
2022/06/18 10:01:55;;;;;;;;;;;;;;;33.00;34.81;101701.03;5056430;28;19936;-40
2022/06/18 10:07:20;;;;;;;;;;;;;;;33.71;33.72;101694.94;5071629;28;20122;-38
2022/06/18 10:09:49;;;;;;;;;;;;;;;32.99;34.65;101691.03;5057901;28;19921;-37
2022/06/18 10:12:34;;;;;;;;;;;;;;;33.18;34.95;101685.34;5068878;28;19921;-35
2022/06/18 10:15:00;;;;;;;;;;;;;;;33.69;34.10;101680.47;5068152;28;19939;-37
2022/06/18 10:17:38;;;;;;;;;;;;;;;33.48;33.70;101694.09;5074870;28;19980;-36
2022/06/18 10:20:03;;;;;;;;;;;;;;;32.76;35.10;101684.56;5067848;28;19955;-37
2022/06/18 10:22:28;;;;;;;;;;;;;;;32.52;36.17;101679.22;5073690;28;19908;-39
2022/06/18 10:25:12;;;;;;;;;;;;;;;32.88;35.75;101680.41;5076215;28;19904;-34
2022/06/18 10:27:43;;;;;;;;;;;;;;;33.64;33.83;101669.44;5076301;28;19920;-35
2022/06/18 10:30:11;;;;;;;;;;;;;;;33.31;34.69;101672.47;5075805;28;19927;-38
2022/06/18 10:33:09;;;;;;;;;;;;;;;34.01;33.15;101670.97;5069870;28;19947;-38
2022/06/18 10:35:42;;;;;;;;;;;;;;;33.75;33.69;101673.59;5023255;28;19947;-36
2022/06/18 10:38:08;;;;;;;;;;;;;;;33.79;33.86;101666.25;5064234;28;19939;-40
2022/06/18 10:40:37;;;;;;;;;;;;;;;33.30;34.80;101662.44;5064550;28;20348;-35
2022/06/18 10:43:12;;;;;;;;;;;;;;;33.65;34.58;101663.56;5056021;28;19915;-34
2022/06/18 10:45:42;;;;;;;;;;;;;;;34.05;33.56;101662.78;5054751;28;20031;-36
2022/06/18 10:48:11;;;;;;;;;;;;;;;33.71;34.39;101657.84;5055000;28;19937;-35
2022/06/18 10:50:46;;;;;;;;;;;;;;;33.42;34.75;101657.13;5064486;28;19947;-36
2022/06/18 10:53:13;;;;;;;;;;;;;;;33.00;35.93;101661.19;5055970;28;19921;-40
2022/06/18 10:55:39;;;;;;;;;;;;;;;33.42;35.58;101662.69;5055197;28;20050;-38
2022/06/18 10:58:22;;;;;;;;;;;;;;;33.39;34.60;101657.75;5055691;28;19917;-34
2022/06/18 11:01:02;;;;;;;;;;;;;;;32.73;36.14;101657.31;5055031;28;19932;-37
2022/06/18 11:03:29;;;;;;;;;;;;;;;31.94;38.44;101649.16;5056048;28;19975;-39
2022/06/18 11:05:54;;;;;;;;;;;;;;;31.95;38.25;101648.03;5055810;28;20020;-35
2022/06/18 11:08:23;;;;;;;;;;;;;;;31.98;38.49;101647.41;5054785;28;20055;-39
2022/06/18 11:10:57;;;;;;;;;;;;;;;32.10;37.67;101650.53;5055564;28;19917;-38
2022/06/18 11:13:35;;;;;;;;;;;;;;;32.74;37.11;101641.41;5055330;28;19921;-38
2022/06/18 11:16:12;;;;;;;;;;;;;;;33.34;35.80;101632.78;5055313;28;19921;-36
2022/06/18 11:18:58;;;;;;;;;;;;;;;33.60;35.51;101640.53;5054744;28;19917;-37
2022/06/18 11:21:23;;;;;;;;;;;;;;;33.10;35.51;101640.59;5055094;28;19932;-38
2022/06/18 11:23:50;;;;;;;;;;;;;;;33.62;34.82;101636.25;5055457;28;19917;-40
2022/06/18 11:26:16;;;;;;;;;;;;;;;33.64;34.75;101630.34;5058949;28;19915;-36
2022/06/18 11:28:43;;;;;;;;;;;;;;;33.20;36.13;101632.00;5068204;28;19972;-36
2022/06/18 11:31:09;;;;;;;;;;;;;;;32.84;37.40;101632.84;5055636;28;19913;-35
2022/06/18 11:33:35;;;;;;;;;;;;;;;32.54;37.95;101643.50;5058910;28;19921;-37
2022/06/18 11:36:07;;;;;;;;;;;;;;;32.13;38.99;101637.94;5069649;28;19994;-37
2022/06/18 11:38:32;;;;;;;;;;;;;;;32.11;38.06;101642.97;5064343;28;20015;-35
2022/06/18 11:41:06;;;;;;;;;;;;;;;32.00;38.84;101639.56;5067046;28;19921;-36
2022/06/18 11:43:37;;;;;;;;;;;;;;;32.17;38.83;101632.56;5044501;28;19921;-36
2022/06/18 11:46:06;;;;;;;;;;;;;;;32.04;38.21;101623.88;5033724;28;19944;-35
2022/06/18 11:48:47;;;;;;;;;;;;;;;31.95;38.77;101625.75;5056975;28;19920;-36
2022/06/18 11:51:30;;;;;;;;;;;;;;;31.32;39.42;101635.44;5061545;28;19932;-37
2022/06/18 11:53:58;;;;;;;;;;;;;;;31.37;39.47;101648.44;5062591;28;19921;-36
2022/06/18 11:56:32;;;;;;;;;;;;;;;31.33;39.79;101647.38;5068797;28;19996;-34
2022/06/18 11:59:00;;;;;;;;;;;;;;;31.27;39.36;101639.09;5055966;28;19984;-35
2022/06/18 12:01:28;;;;;;;;;;;;;;;31.29;38.52;101641.59;5068393;28;19909;-33
2022/06/18 12:03:59;;;;;;;;;;;;;;;30.94;38.50;101641.03;5070910;28;20034;-35
2022/06/18 12:06:33;;;;;;;;;;;;;;;30.68;39.14;101640.53;5074170;28;19963;-37
2022/06/18 12:08:59;;;;;;;;;;;;;;;30.82;38.59;101633.13;5073561;28;19912;-37
2022/06/18 12:11:27;;;;;;;;;;;;;;;30.83;38.45;101632.00;5057716;28;19933;-35
2022/06/18 12:13:55;;;;;;;;;;;;;;;30.63;38.65;101623.91;5059934;28;19950;-36
2022/06/18 12:16:41;;;;;;;;;;;;;;;30.24;39.80;101622.19;5056771;28;19915;-36
2022/06/18 12:19:12;;;;;;;;;;;;;;;30.16;39.90;101625.59;5071535;28;19960;-35
2022/06/18 12:21:38;;;;;;;;;;;;;;;30.17;39.33;101628.06;5065224;28;20101;-38
2022/06/18 12:24:05;;;;;;;;;;;;;;;30.18;39.13;101618.63;5040418;28;19925;-37
2022/06/18 12:26:56;;;;;;;;;;;;;;;30.14;39.08;101622.28;5039352;28;20024;-34
2022/06/18 12:29:26;;;;;;;;;;;;;;;29.95;39.67;101603.59;5050556;28;19928;-38
2022/06/18 12:31:52;;;;;;;;;;;;;;;30.10;39.44;101601.78;5050116;28;19935;-37
2022/06/18 12:34:36;;;;;;;;;;;;;;;29.89;39.93;101595.66;5057544;28;19913;-34
2022/06/18 12:37:03;;;;;;;;;;;;;;;30.17;39.63;101607.78;5069726;28;19921;-37
2022/06/18 12:39:45;;;;;;;;;;;;;;;30.61;38.68;101607.53;5065278;28;19925;-39
2022/06/18 12:42:13;;;;;;;;;;;;;;;31.06;38.23;101604.41;5059211;28;19909;-39
2022/06/18 12:44:50;;;;;;;;;;;;;;;31.30;37.04;101597.91;5064198;28;19975;-37
2022/06/18 12:47:19;;;;;;;;;;;;;;;31.18;36.51;101610.34;5059857;28;19923;-39
2022/06/18 12:50:17;;;;;;;;;;;;;;;31.44;35.90;101609.97;5071308;28;20351;-36
2022/06/18 12:52:51;;;;;;;;;;;;;;;31.21;36.38;101615.31;5037359;28;19925;-36
2022/06/18 12:55:24;;;;;;;;;;;;;;;30.76;37.19;101623.19;5053127;28;19909;-36
2022/06/18 12:57:52;;;;;;;;;;;;;;;30.49;37.93;101618.28;5058195;28;19924;-36